Dillingham Airport
PADL : rendu visible

Aérodrome :











RETROUVEZ-NOUS SUR...

 
LOGIN :

S'inscrire | Disclaimer

   EN    FR    IT 

 









Légende :    VFR   VFR Marginal   IFR   IFR Intensif   IFR Très Intensif
Visi : 
Plafond : 
>= 8 km
>= 3000ft
5 à 8 km
1000 à 3000 ft
1500m à 5 km
500 à 1000 ft
800 à 1500m
200 à 500 ft
< 800m
< 200 ft
Symboles :   Orages  Brouillard  Fortes neiges  Fortes précipitations  Vent > 20 kt






- Altitude de l'aérodrome : 81 ft
- Code IATA : DLG


PADL - Dillingham

DERNIER METAR :
  • 061056Z AUTO VRB03KT 10SM OVC070 06/05 A2996 RMK AO2 SLP147 T00610050

METARs EXPIRÉS :
  • 060956Z AUTO 00000KT 10SM OVC060 07/05 A2996 RMK AO2 SLP148 T00720050
  • 060856Z AUTO VRB03KT 10SM OVC060 08/06 A2996 RMK AO2 RAB42E52 SLP149 P0000 60000 T00780056 401390072 56003

TAF PADL
Valide du 06 à 12h jusqu'au 07 à 12h UTC


061125Z 0612/0712 VRB06KT P6SM VCSH SCT030 BKN070
TEMPO 0612/0616 OVC030
FM061800 26008KT P6SM VCSH OVC025
FM070000 23009KT P6SM BKN050
FIR PAZA / Amérique du Nord



MET'MAP, la Météo Aéronautique d'un coup d'oeil ! - Copyright ORBIFLY Décembre 2007 - Disclaimer

ORBIFLY MET'MAP TEAM :

Programmation & Développement : Alexandra Zaïnal
Sur une idée originale de : Baudouin d'Aumeries
Assistance à la programmation : Marc-Olivier Méhu
Soutien technique & logistique : Manuel Goepfert

Contact : metmap@orbifly.com




SOURCES & CREDITS :

   NOAA       Earth
Advisory